createdAt,value
2023-04-02T00:09:15.945Z,14.2
2023-04-02T00:19:24.959Z,14.1
2023-04-02T00:29:33.839Z,14
2023-04-02T00:39:42.527Z,14.2
2023-04-02T00:59:47.268Z,14.2
2023-04-02T01:09:56.089Z,13.9
2023-04-02T01:20:05.215Z,13.8
2023-04-02T01:40:07.525Z,13.2
2023-04-02T01:50:17.371Z,12.9
2023-04-02T02:00:20.783Z,12.9
2023-04-02T02:10:29.968Z,12.9
2023-04-02T02:20:39.028Z,13.5
2023-04-02T02:30:47.724Z,13.1
2023-04-02T02:40:48.765Z,13.1
2023-04-02T02:51:00.483Z,12.7
2023-04-02T03:00:58.840Z,12.5
2023-04-02T03:11:07.668Z,12.2
2023-04-02T03:21:07.899Z,12.1
2023-04-02T03:31:16.939Z,12.1
2023-04-02T03:41:17.113Z,12.4
2023-04-02T03:51:20.732Z,11.9
2023-04-02T04:01:19.871Z,11.8
2023-04-02T04:11:28.680Z,11.9
2023-04-02T04:21:28.902Z,11.6
2023-04-02T04:31:37.877Z,11.7
2023-04-02T04:41:48.296Z,11.4
2023-04-02T04:51:47.430Z,11.2
2023-04-02T05:01:56.361Z,11.1
2023-04-02T05:12:05.944Z,11.1
2023-04-02T05:22:15.216Z,11
2023-04-02T05:32:23.927Z,11
2023-04-02T05:42:32.717Z,11.1
2023-04-02T05:52:43.183Z,11.2
2023-04-02T06:02:42.668Z,11.2
2023-04-02T06:12:45.676Z,11.3
2023-04-02T06:22:51.669Z,11.4
2023-04-02T06:32:56.473Z,11.2
2023-04-02T06:42:59.978Z,11.2
2023-04-02T06:53:08.793Z,11.4
2023-04-02T07:03:17.035Z,11.4
2023-04-02T07:13:19.636Z,11.6
2023-04-02T07:23:28.512Z,11.8
2023-04-02T07:33:37.452Z,12
2023-04-02T07:43:37.615Z,13
2023-04-02T07:53:47.333Z,14.4
2023-04-02T08:03:56.147Z,15.2
